Bentley

Game-by-Game Results

 

Game Results

 

   Game date     Opposing team     Score     r-h-e  r-h-e  Inns  Overall  Northeast-10  Pitcher of record  Attend  Time 
  02/18/11   at  Rollins    3-5  L     3-6-3  5-11-2  9   0-1-0  0-0-0   Ashline (L 0-1)  100  2:16 
  02/19/11   at  Rollins    4-5  L     4-3-1  5-12-1  9   0-2-0  0-0-0   Murphy (L 0-1)  120  2:28 
  02/20/11   at  Rollins    3-4  L     3-7-3  4-9-1  9   0-3-0  0-0-0   Sherman (L 0-1)  100  2:29 
  02/21/11   at  Rollins    2-6  L     2-3-1  6-11-0  9   0-4-0  0-0-0   Witkowski (L 0-1)  75  2:05 
  03/04/11   vs  Concordia, N.Y.  5-2       5-8-2  2-5-1  9   1-4-0  0-0-0   Yohe (W 1-0)  80  2:22 
  03/04/11   vs  Saint Anselm    3-14  L     3-6-4  14-19-1  9   1-5-0  0-0-0   Murphy (L 0-2)  80  2:33 
  03/05/11   vs  Saint Anselm  8-6       8-11-0  6-9-2  9   2-5-0  0-0-0   Ashline (W 1-1)  80  2:45 
  03/06/11   vs  Assumption  7-6       7-6-1  6-11-2  9   3-5-0  0-0-0   Witkowski (W 1-1)  80  2:17 
  03/13/11   vs  Stonehill    2-6  L     2-5-2  6-8-3  9   3-6-0  0-0-0   Yohe (L 1-1)  80  2:30 
  03/14/11   vs  Stonehill  8-5       8-12-5  5-10-3  (10)   4-6-0  0-0-0   Witkowski (W 2-1)  60  2:44 
  03/15/11   vs  Bridgeport  7-2       7-7-0  2-5-2  9   5-6-0  0-0-0   McLean (W 1-0)  60  2:10 
  03/16/11   vs  Pace    4-8  L     4-14-0  8-14-1  9   5-7-0  0-0-0   Ciavarella (L 0-1)  50  2:48 
  03/17/11   vs  Bridgeport    3-4  L     3-17-2  4-13-1  (13)   5-8-0  0-0-0   Ashline (L 1-2)  50  3:33 
  03/18/11   vs  Pace  15-4       15-21-2  4-8-1  9   6-8-0  0-0-0   Yohe (W 2-1)  45  2:16 
  03/19/11   vs  Stonehill    2-3  L     2-6-1  3-8-2  9   6-9-0  0-0-0   Witkowski (L 2-2)  40  2:13 
03/23/11   at  UMass Lowell    3-4  L     3-9-0  4-10-0  9   6-10-0  0-1-0   McLean (L 1-1)  58  2:07 
03/24/11     UMASS LOWELL    6-14  L     6-8-2  14-18-1  9   6-11-0  0-2-0   Sherman (L 0-2)  58  2:56 
03/27/11   at  #14 Franklin Pierce    1-5  L     1-6-2  5-11-2  9   6-12-0  0-3-0   Yohe (L 2-2)  91  2:18 
03/30/11     #15 FRANKLIN PIERCE    2-12  L     2-9-4  12-12-2  9   6-13-0  0-4-0   McLean (L 1-2)  96  2:43 
04/03/11   at  Pace-1    3-7  L     3-4-2  7-14-1  9   6-14-0  0-5-0   Yohe (L 2-3)  2:35 
04/03/11   at  Pace-2  9-5       9-13-2  5-13-0  9   7-14-0  1-5-0   Murphy (W 1-2)  80  2:45 
04/06/11     STONEHILL    0-1  L     0-3-1  1-6-0  9   7-15-0  1-6-0   Witkowski (L 2-3)  77  2:01 
04/07/11   at  Stonehill  13-8       13-17-0  8-8-2  9   8-15-0  2-6-0   Ashline (W 2-2)  144  3:02 
04/09/11   at  #5 So. Connecticut St.-1    4-8  L     4-7-1  8-10-2  9   8-16-0  2-7-0   Murphy (L 1-3)  100  2:35 
04/09/11   at  #5 So. Connecticut St.-2    4-6  L     4-10-3  6-13-2  9   8-17-0  2-8-0   Yohe (L 2-4)  75  2:52 
  04/14/11     SAINT ANSELM    6-8  L     6-9-2  8-17-3  9   8-18-0  2-8-0   Ciavarella (L 0-2)  105  2:49 
04/16/11     AMER. INTERNATIONAL-1    7-8  L     7-10-0  8-14-5  9   8-19-0  2-9-0   Witkowski (L 2-4)  43  3:02 
04/16/11     AMER. INTERNATIONAL-2  2-1       2-8-1  1-8-1  (10)   9-19-0  3-9-0   Sherman (W 1-2)  43  2:43 
04/18/11   at  Merrimack    6-17  L     6-7-2  17-18-3  9   9-20-0  3-10-0   Murphy (L 1-4)  95  2:35 
04/20/11     MERRIMACK  8-0       8-14-1  0-5-1  9   10-20-0  4-10-0   Ashline (W 3-2)  45  2:09 
  04/22/11   at  Tufts    1-4  L     1-4-2  4-8-1  9   10-21-0  4-10-0   Croteau (L 0-1)  150  2:05 
04/25/11     ASSUMPTION  6-2       6-12-2  2-10-2  9   11-21-0  5-10-0   Yohe (W 3-4)  42  1:57 
04/26/11     SO. NEW HAMPSHIRE    2-6  L     2-7-1  6-12-0  9   11-22-0  5-11-0   Ashline (L 3-3)  88  2:22 
04/29/11   at  So. New Hampshire    7-15  L     7-10-1  15-13-4  9   11-23-0  5-12-0   Murphy (L 1-5)  112  2:53 
04/30/11   at  Saint Rose-1    4-6  L     4-6-0  6-11-3  9   11-24-0  5-13-0   Witkowski (L 2-5)  155  2:11 
04/30/11   at  Saint Rose-2  9-4       9-14-1  4-8-4  9   12-24-0  6-13-0   Ciavarella (W 1-2)  2:18 
05/01/11     NEW HAVEN-1    1-7  L     1-8-3  7-11-0  9   12-25-0  6-14-0   Sherman (L 1-3)  112  2:30 
05/01/11     NEW HAVEN-2  4-3       4-13-1  3-11-2  9   13-25-0  7-14-0   Rey (W 1-0)  112  2:38 
05/02/11     SAINT ANSELM    3-7  L     3-7-1  7-12-0  9   13-26-0  7-15-0   Ashline (L 3-4)  84  2:29 
05/03/11   at  Saint Anselm  11-10       11-13-6  10-12-2  9   14-26-0  8-15-0   Murphy (W 2-5)  227  2:52 
05/06/11     ASSUMPTION    4-5  L     4-8-2  5-13-1  (11)   14-27-0  8-16-0   Ashline (L 3-5)  105  2:46 
05/07/11     ADELPHI    0-4  L     0-5-1  4-8-0  7   14-28-0  8-17-0   Ciavarella (L 1-3)  63  1:46 
05/08/11     ADELPHI-1    0-2  L     0-4-1  2-5-0  9   14-29-0  8-18-0   Yohe (L 3-5)  58  1:50 
  05/08/11     ADELPHI-2  2-1       2-9-0  1-6-2  7   15-29-0  8-18-0   Rey (W 2-0)  54  1:58 

() extra inning game
 

Team Game-by-Game

 


Batting (All games)

   Date     Opponent  ab  rbi  2b  3b  hr  bb  ibb  sb  cs  hbp  sh  sf  gdp  po    avg 
  02/18/11   at  Rollins   31  24  15  .194 
  02/19/11   at  Rollins   30  24  16  .148 
  02/20/11   at  Rollins   32  26  14  .172 
  02/21/11   at  Rollins   28  24  12  .157 
  03/04/11   vs  Concordia, N.Y.   31  27  .178 
  03/04/11   vs  Saint Anselm   33  27  13  .178 
  03/05/11   vs  Saint Anselm   37  11  27  .198 
  03/06/11   vs  Assumption   30  27  .198 
  03/13/11   vs  Stonehill   32  27  10  .194 
  03/14/11   vs  Stonehill   42  12  30  17  .206 
  03/15/11   vs  Bridgeport   31  27  11  .207 
  03/16/11   vs  Pace   38  14  27  .223 
  03/17/11   vs  Bridgeport   54  17  38  12  .234 
  03/18/11   vs  Pace   44  15  21  13  27  11  .256 
  03/19/11   vs  Stonehill   33  10  27  15  .251 
03/23/11   at  UMass Lowell   35  24  10  .251 
03/24/11     UMASS LOWELL   33  27  12  .251 
03/27/11   at  Franklin Pierce   34  10  24  16  .247 
03/30/11     FRANKLIN PIERCE   35  27  18  .247 
04/03/11   at  Pace   32  24  .242 
04/03/11   at  Pace   35  13  27  11  .248 
04/06/11     STONEHILL   29  27  10  .242 
04/07/11   at  Stonehill   44  13  17  13  27  11  .250 
04/09/11   at  So. Connecticut St.   34  24  14  .249 
04/09/11   at  So. Connecticut St.   38  10  11  24  .249 
  04/14/11     SAINT ANSELM   36  27  13  .249 
04/16/11     AMER. INTERNATIONAL   40  10  27  .249 
04/16/11     AMER. INTERNATIONAL   33  30  18  .249 
04/18/11   at  Merrimack   36  24  11  .247 
04/20/11     MERRIMACK   35  14  27  10  .252 
  04/22/11   at  Tufts   31  24  15  .249 
04/25/11     ASSUMPTION   34  12  27  14  .252 
04/26/11     SO. NEW HAMPSHIRE   31  27  14  .251 
04/29/11   at  So. New Hampshire   40  10  24  .251 
04/30/11   at  Saint Rose   34  24  .249 
04/30/11   at  Saint Rose   44  14  27  13  .251 
05/01/11     NEW HAVEN   34  27  17  .251 
05/01/11     NEW HAVEN   39  13  27  10  .253 
05/02/11     SAINT ANSELM   34  27  12  .252 
05/03/11   at  Saint Anselm   39  11  13  11  27  11  .254 
05/06/11     ASSUMPTION   38  33  13  .253 
05/07/11     ADELPHI   22  21  .253 
05/08/11     ADELPHI   29  11  27  12  .251 
  05/08/11     ADELPHI   27  21  11  .252 
   Totals        1531  204  386  175  72  20  141  66  11  23  20  17  21  235  1162  515  72  .252 



Pitching (All games)

   Date     Opponent  ip  er  bb  so  2b  3b  hr  wp  bk  hbp  dp  ibb  score  sv    era 
  02/18/11   at  Rollins   8.0  11  3-5  2.25 
  02/19/11   at  Rollins   8.0  12  4-5  3.94 
  02/20/11   at  Rollins   8.2  3-4  3.65 
  02/21/11   at  Rollins   8.0  11  2-6  4.13 
  03/04/11   vs  Concordia, N.Y.   9.0  5-2  3.46 
  03/04/11   vs  Saint Anselm   9.0  19  14  3-14  4.44 
  03/05/11   vs  Saint Anselm   9.0  8-6  4.68 
  03/06/11   vs  Assumption   9.0  11  7-6  4.85 
  03/13/11   vs  Stonehill   9.0  2-6  4.64 
  03/14/11   vs  Stonehill   10.0  10  8-5  4.21 
  03/15/11   vs  Bridgeport   9.0  7-2  4.00 
  03/16/11   vs  Pace   9.0  14  4-8  4.34 
  03/17/11   vs  Bridgeport   12.2  13  10  3-4  4.11 
  03/18/11   vs  Pace   9.0  15-4  4.03 
  03/19/11   vs  Stonehill   9.0  2-3  3.83 
03/23/11   at  UMass Lowell   8.0  10  3-4  10  3.87 
03/24/11     UMASS LOWELL   9.0  18  14  11  6-14  11  4.28 
03/27/11   at  Franklin Pierce   8.0  11  1-5  12  4.35 
03/30/11     FRANKLIN PIERCE   9.0  12  12  2-12  13  4.28 
04/03/11   at  Pace   8.0  14  10  3-7  14  4.39 
04/03/11   at  Pace   9.0  13  9-5  14  4.37 
04/06/11     STONEHILL   9.0  0-1  15  4.22 
04/07/11   at  Stonehill   9.0  12  13-8  15  4.38 
04/09/11   at  So. Connecticut St.   8.0  10  4-8  16  4.51 
04/09/11   at  So. Connecticut St.   8.0  13  4-6  17  4.51 
  04/14/11     SAINT ANSELM   9.0  17  6-8  18  4.65 
04/16/11     AMER. INTERNATIONAL   9.0  14  7-8  19  4.78 
04/16/11     AMER. INTERNATIONAL   10.0  2-1  19  4.62 
04/18/11   at  Merrimack   8.0  18  17  11  6-17  20  4.86 
04/20/11     MERRIMACK   9.0  8-0  10  20  4.70 
  04/22/11   at  Tufts   8.0  1-4  10  21  4.69 
04/25/11     ASSUMPTION   9.0  10  6-2  11  21  4.61 
04/26/11     SO. NEW HAMPSHIRE   9.0  12  2-6  11  22  4.62 
04/29/11   at  So. New Hampshire   8.0  13  15  11  7-15  11  23  4.82 
04/30/11   at  Saint Rose   8.0  11  4-6  11  24  4.87 
04/30/11   at  Saint Rose   9.0  9-4  12  24  4.79 
05/01/11     NEW HAVEN   9.0  11  1-7  12  25  4.74 
05/01/11     NEW HAVEN   9.0  11  4-3  13  25  4.67 
05/02/11     SAINT ANSELM   9.0  12  3-7  13  26  4.70 
05/03/11   at  Saint Anselm   9.0  12  10  11-10  14  26  4.74 
05/06/11     ASSUMPTION   11.0  13  4-5  14  27  4.67 
05/07/11     ADELPHI   7.0  0-4  14  28  4.68 
05/08/11     ADELPHI   9.0  0-2  14  29  4.61 
  05/08/11     ADELPHI   7.0  2-1  15  29  4.55 
   Totals        387.1  470  260  196  137  237  91  10  12  18  21  30  204-260  15  29  4.55 

* = Northeast-10 game

 

Team Situational Game-by-Game

 


Batting (All games)

 
  
 
date 
 
  
 
opponent 
total
h-ab 
vs
left 
vs
right 
with
runners 
bases
empty 
bases
loaded 
with
2-outs 
with
rbi-op 
rch as
leadoff 
3rd and
lt 2out 
 
lob 
  02/18/11   at  Rollins   6-31  0-1  6-30  3-12  3-19  2-3  0-9  2-5  3-9  2-3 
  02/19/11   at  Rollins   3-30  0-0  3-30  2-17  1-13  0-0  0-9  0-9  4-9  3-3 
  02/20/11   at  Rollins   7-32  2-12  5-20  5-18  2-14  0-0  4-12  3-13  4-9  0-0 
  02/21/11   at  Rollins   3-28  0-3  3-25  1-4  2-24  0-0  1-9  1-4  2-9  1-1 
  03/04/11   vs  Concordia, N.Y.   8-31  0-0  8-31  4-14  4-17  0-0  0-7  2-8  2-8  4-4 
  03/04/11   vs  Saint Anselm   6-33  0-0  6-33  4-16  2-17  0-0  2-10  2-9  4-9  0-1 
  03/05/11   vs  Saint Anselm   11-37  0-0  11-37  6-21  5-16  0-3  3-10  3-12  4-9  3-5 
  03/06/11   vs  Assumption   6-30  0-6  6-24  4-15  2-15  0-0  2-10  2-12  5-9  1-4 
  03/13/11   vs  Stonehill   5-32  0-0  5-32  4-13  1-19  0-0  2-11  1-7  2-9  1-2 
  03/14/11   vs  Stonehill   12-42  9-33  3-9  7-25  5-17  0-5  0-9  6-17  7-10  2-6  11 
  03/15/11   vs  Bridgeport   7-31  0-0  7-31  4-17  3-14  1-4  0-8  3-14  5-8  4-6 
  03/16/11   vs  Pace   14-38  4-13  10-25  9-30  5-8  0-0  2-10  6-21  8-9  2-4  14 
  03/17/11   vs  Bridgeport   17-54  0-0  17-54  8-27  9-27  0-2  8-21  4-17  4-13  0-1  17 
  03/18/11   vs  Pace   21-44  1-2  20-42  13-26  8-18  1-2  3-13  9-19  4-9  7-9 
  03/19/11   vs  Stonehill   6-33  0-0  6-33  2-8  4-25  0-1  3-11  1-3  3-9  0-0 
03/23/11   at  UMass Lowell   9-35  0-0  9-35  4-13  5-22  0-0  5-14  3-7  1-9  0-0 
03/24/11     UMass Lowell   8-33  3-9  5-24  6-18  2-15  0-1  1-10  3-14  5-9  1-2 
03/27/11   at  Franklin Pierce   6-34  2-21  4-13  2-12  4-22  0-0  2-11  0-7  2-10  0-1 
03/30/11     Franklin Pierce   9-35  0-0  9-35  4-16  5-19  1-2  2-10  2-8  2-9  1-3 
04/03/11   at  Pace   4-32  2-23  2-9  2-16  2-16  0-3  2-11  2-8  2-9  2-3  11 
04/03/11   at  Pace   13-35  6-15  7-20  6-22  7-13  0-0  4-13  6-15  5-9  3-3  10 
04/06/11     Stonehill   3-29  3-26  0-3  1-8  2-21  0-1  2-11  0-4  1-9  0-0 
04/07/11   at  Stonehill   17-44  13-32  4-12  11-27  6-17  0-3  2-11  9-19  5-9  8-10  11 
04/09/11   at  So. Connecticut St.   7-34  0-0  7-34  4-12  3-22  0-0  5-15  3-7  2-9  0-1 
04/09/11   at  So. Connecticut St.   10-38  9-34  1-4  5-19  5-19  0-0  2-12  3-13  2-9  0-3 
  04/14/11     Saint Anselm   9-36  0-0  9-36  4-21  5-15  0-0  2-11  3-15  4-9  2-3 
04/16/11     Amer. International   10-40  0-0  10-40  4-19  6-21  1-2  7-19  3-13  3-9  0-0 
04/16/11     Amer. International   8-33  0-0  8-33  2-16  6-17  0-0  0-8  0-9  5-10  0-1 
04/18/11   at  Merrimack   7-36  2-8  5-28  5-21  2-15  0-0  3-11  1-10  5-9  0-0 
04/20/11     Merrimack   14-35  0-0  14-35  8-19  6-16  0-1  3-9  5-11  2-8  4-6 
  04/22/11   at  Tufts   4-31  0-0  4-31  2-11  2-20  0-0  2-12  1-3  2-9  0-0 
04/25/11     Assumption   12-34  0-0  12-34  6-14  6-20  0-0  3-11  2-9  3-8  2-3 
04/26/11     So. New Hampshire   7-31  5-26  2-5  4-14  3-17  0-0  5-13  2-10  3-9  0-1 
04/29/11   at  So. New Hampshire   10-40  0-0  10-40  6-22  4-18  1-3  3-13  2-10  3-9  3-4  13 
04/30/11   at  Saint Rose   6-34  0-0  6-34  3-9  3-25  0-2  1-11  0-4  1-9  1-1 
04/30/11   at  Saint Rose   14-44  0-0  14-44  9-25  5-19  0-1  5-14  4-11  2-9  3-3  10 
05/01/11     New Haven   8-34  0-0  8-34  4-13  4-21  0-1  6-15  1-5  1-9  0-0 
05/01/11     New Haven   13-39  0-0  13-39  7-17  6-22  1-4  3-11  5-14  2-9  2-5 
05/02/11     Saint Anselm   7-34  0-0  7-34  5-17  2-17  0-0  2-11  2-11  1-9  1-1 
05/03/11   at  Saint Anselm   13-39  0-0  13-39  5-19  8-20  3-3  2-11  3-13  7-9  3-3 
05/06/11     Assumption   8-38  1-7  7-31  4-14  4-24  0-0  3-13  2-8  3-11  3-4 
05/07/11     Adelphi   5-22  0-0  5-22  1-8  4-14  0-0  2-8  0-5  3-7  0-0 
05/08/11     Adelphi   4-29  4-29  0-0  0-7  4-22  0-0  1-10  0-4  2-9  0-0 
  05/08/11     Adelphi   9-27  0-0  9-27  5-11  4-16  0-1  4-8  4-9  0-7  0-1 
   Totals        386-1531  66-300  320-1231  205-723  181-808  11-48  114-496  116-446  140-397  69-111  341 
            .252  .220  .260  .284  .224  .229  .230  .260  .353  .622 



Pitching (All games)

 
  
 
date 
 
  
 
opponent 
 
score 
 
w-l 
total
h-ab 
vs
left 
vs
right 
with
runners 
bases
empty 
with
2-outs 
rch as
leadoff 
gnd
out 
fly
out 
 
  era 
  02/18/11   at  Rollins   3-5  L   11-36  3-8  8-28  6-25  5-11  3-10  5-8  15  2.25 
  02/19/11   at  Rollins   4-5  L   12-33  2-4  10-29  6-19  6-14  2-8  5-8  11  3.94 
  02/20/11   at  Rollins   3-4  L   9-32  0-4  9-28  5-13  4-19  5-12  2-9  11  3.65 
  02/21/11   at  Rollins   2-6  L   11-33  0-0  11-33  5-17  6-16  2-10  3-8  12  4.13 
  03/04/11   vs  Concordia, N.Y.   5-2  W   5-30  1-2  4-28  2-14  3-16  2-10  3-9  3.46 
  03/04/11   vs  Saint Anselm   3-14  L   19-47  8-15  11-32  13-34  6-13  7-17  5-9  12  11  4.44 
  03/05/11   vs  Saint Anselm   8-6  W   9-35  5-12  4-23  6-18  3-17  2-11  3-9  10  10  4.68 
  03/06/11   vs  Assumption   7-6  W   11-37  2-12  9-25  6-18  5-19  2-9  3-9  17  4.85 
  03/13/11   vs  Stonehill   2-6  L   8-33  3-14  5-19  5-17  3-16  3-11  4-9  10  4.64 
  03/14/11   vs  Stonehill   8-5  W   10-39  6-19  4-20  4-25  6-14  4-13  7-10  19  4.21 
  03/15/11   vs  Bridgeport   7-2  W   5-31  1-8  4-23  3-14  2-17  2-11  3-9  11  10  4.00 
  03/16/11   vs  Pace   4-8  L   14-39  11-28  3-11  8-26  6-13  4-11  5-9  14  4.34 
  03/17/11   vs  Bridgeport   3-4  L   13-48  3-16  10-32  5-25  8-23  5-17  6-13  14  12  4.11 
  03/18/11   vs  Pace   15-4  W   8-36  6-22  2-14  3-10  5-26  6-17  1-9  10  4.03 
  03/19/11   vs  Stonehill   2-3  L   8-34  6-20  2-14  3-13  5-21  5-13  3-9  15  3.83 
03/23/11   at  UMass Lowell   3-4  L   10-31  0-0  10-31  5-18  5-13  4-11  5-8  3.87 
03/24/11     UMass Lowell   6-14  L   18-46  1-2  17-44  11-33  7-13  5-13  5-9  10  11  4.28 
03/27/11   at  Franklin Pierce   1-5  L   11-33  0-0  11-33  6-14  5-19  5-12  0-8  10  4.35 
03/30/11     Franklin Pierce   2-12  L   12-38  1-2  11-36  8-25  4-13  9-17  6-9  17  4.28 
04/03/11   at  Pace   3-7  L   14-38  7-26  7-12  9-22  5-16  2-9  3-8  4.39 
04/03/11   at  Pace   9-5  W   13-39  7-23  6-16  8-24  5-15  3-11  4-9  10  4.37 
04/06/11     Stonehill   0-1  L   6-31  1-11  5-20  1-12  5-19  2-11  3-9  12  4.22 
04/07/11   at  Stonehill   13-8  W   8-32  4-13  4-19  3-18  5-14  1-9  3-9  10  4.38 
04/09/11   at  So. Connecticut St.   4-8  L   10-35  1-10  9-25  7-16  3-19  9-17  1-8  14  4.51 
04/09/11   at  So. Connecticut St.   4-6  L   13-37  5-12  8-25  7-23  6-14  1-9  4-8  12  4.51 
  04/14/11     Saint Anselm   6-8  L   17-43  0-0  17-43  10-25  7-18  8-16  3-9  11  10  4.65 
04/16/11     Amer. International   7-8  L   14-39  4-15  10-24  9-22  5-17  5-13  3-9  12  4.78 
04/16/11     Amer. International   2-1  W   8-37  3-13  5-24  2-18  6-19  2-11  4-10  15  4.62 
04/18/11   at  Merrimack   6-17  L   18-43  9-14  9-29  15-26  3-17  2-11  2-8  12  4.86 
04/20/11     Merrimack   8-0  W   5-31  1-12  4-19  1-11  4-20  1-11  2-9  4.70 
  04/22/11   at  Tufts   1-4  L   8-30  0-0  8-30  4-15  4-15  2-11  3-8  13  4.69 
04/25/11     Assumption   6-2  W   10-36  2-9  8-27  4-17  6-19  4-14  5-9  13  4.61 
04/26/11     So. New Hampshire   2-6  L   12-33  5-9  7-24  6-15  6-18  4-8  4-9  4.62 
04/29/11   at  So. New Hampshire   7-15  L   13-38  4-11  9-27  10-21  3-17  6-15  3-8  12  4.82 
04/30/11   at  Saint Rose   4-6  L   11-32  2-4  9-28  6-15  5-17  4-11  4-8  4.87 
04/30/11   at  Saint Rose   9-4  W   8-32  2-8  6-24  3-11  5-21  5-13  2-9  11  4.79 
05/01/11     New Haven   1-7  L   11-36  6-20  5-16  5-20  6-16  4-12  3-9  12  4.74 
05/01/11     New Haven   4-3  W   11-36  5-19  6-17  5-20  6-16  1-10  5-9  10  4.67 
05/02/11     Saint Anselm   3-7  L   12-38  2-8  10-30  7-24  5-14  3-11  4-9  13  4.70 
05/03/11   at  Saint Anselm   11-10  W   12-38  4-12  8-26  7-21  5-17  3-13  5-9  11  11  4.74 
05/06/11     Assumption   4-5  L   13-45  4-14  9-31  8-26  5-19  2-12  4-11  13  12  4.67 
05/07/11     Adelphi   0-4  L   8-29  2-10  6-19  3-17  5-12  2-8  4-7  12  4.68 
05/08/11     Adelphi   0-2  L   5-32  3-8  2-24  3-13  2-19  2-10  3-9  13  12  4.61 
  05/08/11     Adelphi   2-1  W   6-25  1-6  5-19  2-7  4-18  4-10  0-7  4.55 
   Totals        204-260  -   470-1576  143-475  327-1101  255-837  215-739  159-519  155-388  459  396  4.55 
                  .298  .301  .297  .305  .291  .306  .399 
 

Individual Game-by-Game

 
#32JP_Ashline
#14Greg_Baggett
#10Will_Brennan
#15Greg_Ciavarella
#--Courville
#21Jeff_Croteau
#17Sam_Cummings
#4Ross_Curley
#20Andrew_Dhionis
#7Vinnie_Eruzione
#0Rob_Finneran
#1Logan_Gillis
#11Chris_Hardy
#8Sean_Keady
#22Kevin_Korwek
#3Mark_Lane
#12Blaine_McLean
#30Dan_Murphy
#--Osborne
#2Dante_Padovani
#--Ravanis
#23Lamarre_Rey
#24Matt_Sherman
#--Spates
#19Nathan_Witkowski
#26John_Yohe

View: Mobile | Desktop